createdAt,value
2022-11-24T00:00:54.814Z,38.10
2022-11-24T00:01:54.720Z,29.80
2022-11-24T00:03:17.264Z,26.00
2022-11-24T01:17:49.608Z,48.80
2022-11-24T01:18:35.371Z,46.00
2022-11-24T01:19:41.194Z,37.40
2022-11-24T01:20:30.685Z,37.80
2022-11-24T01:21:31.000Z,53.50
2022-11-24T01:22:32.378Z,56.90
2022-11-24T01:23:29.794Z,46.90
2022-11-24T01:24:29.158Z,48.70
2022-11-24T01:25:30.473Z,46.40
2022-11-24T01:26:59.050Z,62.70
2022-11-24T01:28:21.199Z,39.40
2022-11-24T01:29:13.443Z,42.70
2022-11-24T01:30:15.252Z,54.90
2022-11-24T01:31:17.073Z,41.60
2022-11-24T01:32:18.023Z,57.00
2022-11-24T01:33:15.732Z,36.90
2022-11-24T01:34:25.523Z,45.50
2022-11-24T01:35:14.300Z,40.10
2022-11-24T01:36:12.511Z,41.50
2022-11-24T01:37:15.060Z,51.50
2022-11-24T01:38:14.196Z,52.30
2022-11-24T01:39:13.740Z,45.30
2022-11-24T01:40:13.507Z,45.30
2022-11-24T01:41:18.622Z,46.00
2022-11-24T01:42:12.473Z,45.20
2022-11-24T01:43:16.043Z,60.30
2022-11-24T01:44:14.655Z,52.40
2022-11-24T01:45:15.917Z,59.80
2022-11-24T01:46:12.122Z,58.80
2022-11-24T01:47:14.034Z,48.30
2022-11-24T01:48:16.020Z,79.80
2022-11-24T01:49:15.936Z,46.70
2022-11-24T01:50:14.446Z,51.90
2022-11-24T01:51:15.971Z,64.70
2022-11-24T01:52:15.507Z,68.40
2022-11-24T01:53:13.514Z,43.70
2022-11-24T01:54:15.392Z,68.40
2022-11-24T01:55:12.322Z,56.90
2022-11-24T01:56:16.942Z,42.20
2022-11-24T01:57:35.012Z,61.40
2022-11-24T01:58:12.944Z,58.40
2022-11-24T01:59:15.911Z,52.00
2022-11-24T02:00:13.395Z,64.60
2022-11-24T02:01:15.081Z,60.60
2022-11-24T02:02:13.303Z,58.20
2022-11-24T02:03:15.130Z,50.80
2022-11-24T02:04:13.546Z,72.90
2022-11-24T02:05:16.046Z,59.80
2022-11-24T02:06:15.021Z,53.80
2022-11-24T02:07:36.870Z,37.30
2022-11-24T02:08:16.286Z,56.00
2022-11-24T02:09:15.260Z,51.70
2022-11-24T02:10:12.852Z,75.30
2022-11-24T02:11:15.084Z,59.30
2022-11-24T02:12:19.350Z,58.80
2022-11-24T02:13:15.110Z,58.00
2022-11-24T02:17:41.947Z,52.00
2022-11-24T02:18:37.819Z,59.60
2022-11-24T02:22:00.552Z,46.30
2022-11-24T02:22:50.498Z,47.30
2022-11-24T02:23:39.357Z,62.60
2022-11-24T02:24:39.138Z,45.50
2022-11-24T02:25:40.417Z,65.70
2022-11-24T02:26:39.378Z,67.10
2022-11-24T02:27:42.508Z,38.50
2022-11-24T02:28:42.607Z,34.60
2022-11-24T02:29:42.125Z,45.50
2022-11-24T02:30:44.016Z,54.70
2022-11-24T02:31:40.163Z,38.80
2022-11-24T02:32:39.466Z,52.80
2022-11-24T02:33:38.918Z,54.20
2022-11-24T02:34:40.070Z,67.10
2022-11-24T02:35:42.427Z,83.00
2022-11-24T02:36:39.186Z,56.00
2022-11-24T02:38:16.024Z,63.70
2022-11-24T02:38:41.949Z,61.20
2022-11-24T02:41:30.167Z,55.40
2022-11-24T02:42:21.898Z,55.70
2022-11-24T02:43:26.058Z,50.50
2022-11-24T02:44:27.724Z,49.30
2022-11-24T02:45:51.623Z,54.60
2022-11-24T02:46:28.562Z,53.50
2022-11-24T02:47:25.675Z,60.50
2022-11-24T02:54:40.748Z,39.20
2022-11-24T02:55:08.270Z,40.00
2022-11-24T03:06:27.012Z,62.30
2022-11-24T03:07:25.098Z,60.50
2022-11-24T03:08:23.301Z,58.60
2022-11-24T03:09:34.321Z,78.00
2022-11-24T03:10:21.500Z,85.90
2022-11-24T03:11:21.768Z,53.60
2022-11-24T03:12:24.941Z,68.20
2022-11-24T03:13:30.799Z,56.30
2022-11-24T03:14:26.237Z,72.40
2022-11-24T03:15:28.998Z,55.10
2022-11-24T03:16:23.641Z,70.60
2022-11-24T03:17:24.137Z,70.10
2022-11-24T03:18:25.894Z,64.00
2022-11-24T03:19:22.554Z,59.10
2022-11-24T03:20:22.918Z,58.90
2022-11-24T03:21:20.717Z,49.10
2022-11-24T03:22:35.753Z,76.00
2022-11-24T03:23:31.751Z,70.90
2022-11-24T04:58:50.842Z,44.50
2022-11-24T04:59:51.688Z,48.10
2022-11-24T05:01:07.851Z,43.10
2022-11-24T05:02:01.058Z,52.80
2022-11-24T05:02:53.028Z,40.80
2022-11-24T05:04:00.208Z,46.30
2022-11-24T05:04:51.580Z,40.80
2022-11-24T05:05:56.201Z,58.10
2022-11-24T05:07:00.677Z,58.50
2022-11-24T05:07:52.862Z,47.70
2022-11-24T05:09:13.056Z,47.20
2022-11-24T05:10:27.983Z,39.70
2022-11-24T05:11:01.496Z,35.00
2022-11-24T05:11:57.145Z,40.50
2022-11-24T05:13:02.444Z,31.80
2022-11-24T05:14:05.884Z,31.90
2022-11-24T05:14:56.462Z,40.00
2022-11-24T05:15:45.800Z,31.50
2022-11-24T05:16:45.663Z,53.90
2022-11-24T05:17:45.774Z,53.80
2022-11-24T05:18:45.767Z,25.80
2022-11-24T05:19:45.662Z,32.50
2022-11-24T05:20:45.708Z,48.00
2022-11-24T05:21:45.599Z,31.40
2022-11-24T05:22:45.592Z,56.90
2022-11-24T05:23:45.637Z,30.40
2022-11-24T05:24:45.549Z,39.30
2022-11-24T05:25:47.911Z,64.40
2022-11-24T05:26:46.459Z,50.50
2022-11-24T05:27:45.817Z,53.80
2022-11-24T05:28:45.649Z,69.20
2022-11-24T05:29:45.566Z,50.20
2022-11-24T05:30:45.566Z,54.80
2022-11-24T05:31:45.678Z,58.80
2022-11-24T05:32:45.487Z,59.60
2022-11-24T05:33:45.463Z,52.50
2022-11-24T05:34:45.595Z,53.90
2022-11-24T05:36:04.024Z,60.50
2022-11-24T05:36:45.466Z,60.00
2022-11-24T05:37:45.419Z,53.20
2022-11-24T05:38:46.345Z,47.10
2022-11-24T05:39:45.811Z,35.80
2022-11-24T05:40:45.402Z,67.80
2022-11-24T05:41:46.256Z,56.30
2022-11-24T05:43:17.653Z,61.70
2022-11-24T05:44:12.985Z,48.10
2022-11-24T05:45:22.479Z,53.10
2022-11-24T05:46:17.964Z,50.00
2022-11-24T05:47:17.248Z,47.40
2022-11-24T05:59:54.351Z,43.70
2022-11-24T06:00:17.827Z,39.70
2022-11-24T06:01:18.841Z,40.50
2022-11-24T06:02:18.919Z,38.00
2022-11-24T06:03:18.711Z,50.30
2022-11-24T06:04:17.816Z,40.30
2022-11-24T06:05:17.839Z,66.50
2022-11-24T06:06:18.058Z,64.20
2022-11-24T06:07:18.736Z,47.00
2022-11-24T06:08:17.884Z,34.20
2022-11-24T06:09:17.858Z,45.80
2022-11-24T06:17:43.229Z,29.70
2022-11-24T06:18:07.894Z,29.60
2022-11-24T06:19:08.724Z,27.10
2022-11-24T06:20:07.754Z,29.80
2022-11-24T06:21:11.842Z,29.40
2022-11-24T06:22:07.686Z,27.90
2022-11-24T06:23:08.221Z,31.70
2022-11-24T06:24:07.747Z,35.70
2022-11-24T06:25:36.176Z,52.00
2022-11-24T06:26:24.920Z,40.20
2022-11-24T06:27:11.830Z,46.70
2022-11-24T07:11:24.682Z,47.60
2022-11-24T07:12:24.252Z,45.20
2022-11-24T07:13:24.463Z,43.00
2022-11-24T07:14:25.091Z,40.50
2022-11-24T07:15:24.392Z,37.70
2022-11-24T07:16:24.600Z,50.30
2022-11-24T07:17:24.408Z,60.70
2022-11-24T07:18:25.013Z,38.30
2022-11-24T07:19:25.245Z,43.60
2022-11-24T07:20:45.830Z,43.50
2022-11-24T07:24:55.658Z,54.40
2022-11-24T07:25:55.561Z,54.20
2022-11-24T07:26:55.459Z,59.30
2022-11-24T07:27:56.293Z,41.60
2022-11-24T07:28:55.444Z,53.60
2022-11-24T07:29:55.412Z,66.20
2022-11-24T07:30:55.431Z,51.80
2022-11-24T07:31:58.545Z,70.90
2022-11-24T07:32:56.535Z,68.90
2022-11-24T07:33:55.460Z,72.60
2022-11-24T07:34:55.343Z,71.10
2022-11-24T07:35:56.494Z,82.00
2022-11-24T07:36:55.360Z,72.40
2022-11-24T07:37:55.355Z,60.10
2022-11-24T07:38:55.276Z,69.70
2022-11-24T07:39:55.170Z,55.90
2022-11-24T07:40:55.391Z,54.80
2022-11-24T07:41:55.488Z,81.30
2022-11-24T07:42:55.406Z,59.30
2022-11-24T07:43:55.301Z,84.50
2022-11-24T07:44:55.128Z,93.30
2022-11-24T07:45:55.700Z,79.20
2022-11-24T07:46:57.043Z,69.90
2022-11-24T08:34:14.036Z,59.70
2022-11-24T08:59:21.825Z,36.80
2022-11-24T09:00:06.756Z,42.60
2022-11-24T09:01:12.035Z,51.90
2022-11-24T09:04:50.085Z,43.10
2022-11-24T09:05:52.456Z,46.80
2022-11-24T09:11:05.781Z,52.30
2022-11-24T09:11:58.643Z,51.40
2022-11-24T09:12:58.753Z,62.70
2022-11-24T09:14:17.398Z,33.20
2022-11-24T09:34:17.759Z,27.70
2022-11-24T09:47:26.445Z,53.50
2022-11-24T10:12:26.993Z,17.70
2022-11-24T10:25:43.555Z,20.30
2022-11-24T11:45:46.891Z,20.50
2022-11-24T12:03:13.868Z,23.80
2022-11-24T12:03:53.653Z,21.50
2022-11-24T12:15:33.244Z,25.10
2022-11-24T12:16:34.209Z,23.50
2022-11-24T12:17:33.099Z,24.20
2022-11-24T12:18:56.589Z,23.70
2022-11-24T12:19:34.305Z,26.70
2022-11-24T12:20:33.085Z,15.00
2022-11-24T12:21:33.195Z,22.60
2022-11-24T12:22:33.218Z,24.00
2022-11-24T12:23:33.524Z,20.60
2022-11-24T12:24:35.674Z,26.20
2022-11-24T12:25:33.045Z,20.60
2022-11-24T12:26:33.244Z,23.30
2022-11-24T12:27:33.069Z,30.40
2022-11-24T12:28:33.273Z,21.10
2022-11-24T12:29:34.053Z,23.10
2022-11-24T12:30:33.166Z,29.60
2022-11-24T12:31:33.141Z,21.80
2022-11-24T12:32:33.174Z,20.60
2022-11-24T12:33:33.895Z,24.40
2022-11-24T12:34:32.996Z,23.50
2022-11-24T12:35:33.007Z,21.30
2022-11-24T12:36:32.804Z,26.90
2022-11-24T12:37:32.823Z,24.30
2022-11-24T12:38:54.000Z,22.80
2022-11-24T12:39:59.139Z,25.30
2022-11-24T12:41:39.868Z,30.60
2022-11-24T12:42:01.468Z,29.00
2022-11-24T12:46:26.647Z,26.60
2022-11-24T12:47:25.985Z,28.10
2022-11-24T12:48:23.565Z,26.10
2022-11-24T12:49:23.579Z,23.20
2022-11-24T12:50:24.317Z,22.50
2022-11-24T12:51:23.604Z,22.00
2022-11-24T12:52:23.398Z,22.80
2022-11-24T12:53:23.502Z,22.20
2022-11-24T12:54:23.525Z,20.10
2022-11-24T12:55:23.601Z,21.90
2022-11-24T12:56:23.529Z,22.80
2022-11-24T12:57:23.434Z,21.80
2022-11-24T12:58:23.458Z,21.10
2022-11-24T12:59:23.358Z,21.80
2022-11-24T13:00:23.562Z,17.00
2022-11-24T13:01:46.138Z,21.10
2022-11-24T13:02:25.923Z,30.00
2022-11-24T13:03:24.347Z,22.80
2022-11-24T13:04:24.243Z,17.40
2022-11-24T13:05:24.975Z,20.40
2022-11-24T13:06:26.347Z,24.00
2022-11-24T13:07:23.808Z,21.90
2022-11-24T13:08:30.015Z,29.30
2022-11-24T13:09:25.341Z,21.60
2022-11-24T13:12:35.273Z,21.70
2022-11-24T13:13:11.095Z,19.80
2022-11-24T13:14:14.066Z,34.30
2022-11-24T13:16:59.528Z,31.10
2022-11-24T13:26:10.795Z,20.50
2022-11-24T13:27:18.482Z,20.00
2022-11-24T13:27:54.839Z,19.90
2022-11-24T15:03:05.055Z,36.90
2022-11-24T15:04:09.706Z,38.90
2022-11-24T15:05:06.149Z,40.00
2022-11-24T15:05:46.974Z,35.80
2022-11-24T15:07:01.761Z,39.50
2022-11-24T15:08:05.511Z,43.60
2022-11-24T15:08:57.685Z,38.30
2022-11-24T15:11:55.252Z,39.20
2022-11-24T15:16:08.319Z,55.60
2022-11-24T15:16:39.863Z,55.30
2022-11-24T15:17:43.283Z,61.70
2022-11-24T15:18:43.505Z,51.80
2022-11-24T15:19:46.966Z,47.60
2022-11-24T15:21:05.757Z,53.10
2022-11-24T15:21:53.084Z,51.60
2022-11-24T15:23:11.686Z,49.70
2022-11-24T15:26:46.075Z,47.90
2022-11-24T16:39:27.657Z,150.10
2022-11-24T16:40:24.864Z,151.20
2022-11-24T16:41:23.233Z,100.80
2022-11-24T16:42:35.768Z,79.00
2022-11-24T16:43:31.982Z,202.50
2022-11-24T17:03:11.380Z,131.80
2022-11-24T17:04:38.564Z,149.20
2022-11-24T17:05:20.183Z,221.60
2022-11-24T17:06:25.257Z,267.30
2022-11-24T17:07:15.437Z,408.30
2022-11-24T17:08:18.492Z,307.80
2022-11-24T17:12:41.417Z,89.80
2022-11-24T17:13:14.249Z,84.70
2022-11-24T18:36:14.923Z,71.90
2022-11-24T18:37:15.440Z,76.30
2022-11-24T18:38:17.221Z,81.80
2022-11-24T18:39:22.105Z,75.30
2022-11-24T18:40:14.252Z,60.50
2022-11-24T18:41:23.553Z,62.10
2022-11-24T18:42:12.957Z,51.60
2022-11-24T18:43:16.655Z,51.30
2022-11-24T18:44:15.755Z,62.10
2022-11-24T18:45:24.101Z,72.50
2022-11-24T18:46:17.353Z,73.80
2022-11-24T18:47:24.313Z,76.10
2022-11-24T18:48:27.573Z,52.50
2022-11-24T18:55:10.234Z,68.30
2022-11-24T18:55:38.208Z,72.20
2022-11-24T18:56:28.622Z,79.50
2022-11-24T18:57:27.082Z,99.70
2022-11-24T18:58:23.492Z,151.80
2022-11-24T18:59:24.973Z,149.90
2022-11-24T19:00:29.363Z,165.50
2022-11-24T19:01:29.957Z,145.30
2022-11-24T19:02:30.985Z,226.30
2022-11-24T19:03:31.932Z,191.20
2022-11-24T19:40:10.606Z,144.50
2022-11-24T19:41:03.331Z,139.40
2022-11-24T19:42:29.632Z,162.40
2022-11-24T19:43:04.949Z,149.80
2022-11-24T19:44:05.278Z,164.30
2022-11-24T19:45:04.531Z,154.20
2022-11-24T19:46:04.632Z,122.90
2022-11-24T19:47:08.061Z,153.10
2022-11-24T19:48:04.918Z,121.50
2022-11-24T19:49:04.836Z,194.60
2022-11-24T19:50:10.202Z,229.20
2022-11-24T19:51:08.161Z,127.20
2022-11-24T19:52:09.910Z,133.80
2022-11-24T19:53:03.658Z,170.90
2022-11-24T19:54:06.881Z,128.80
2022-11-24T19:55:11.086Z,163.30
2022-11-24T19:56:16.190Z,115.50
2022-11-24T19:57:06.318Z,264.20
2022-11-24T19:58:06.196Z,218.10
2022-11-24T19:59:04.421Z,322.90
2022-11-24T20:00:08.969Z,245.20
2022-11-24T20:01:03.705Z,166.90
2022-11-24T20:02:11.115Z,165.60
2022-11-24T20:03:05.208Z,185.40
2022-11-24T20:04:06.329Z,111.80
2022-11-24T20:05:12.155Z,222.60
2022-11-24T20:08:13.164Z,133.80
2022-11-24T20:09:01.869Z,123.70
2022-11-24T20:10:06.097Z,247.80
2022-11-24T20:10:59.206Z,139.50
2022-11-24T20:11:56.535Z,174.10
2022-11-24T20:12:58.781Z,131.40
2022-11-24T20:14:22.641Z,126.50
2022-11-24T20:14:56.133Z,219.90
2022-11-24T20:15:57.402Z,230.20
2022-11-24T20:17:11.937Z,255.40
2022-11-24T20:17:59.722Z,197.80
2022-11-24T20:19:04.086Z,169.00
2022-11-24T20:20:04.551Z,207.80
2022-11-24T20:20:58.483Z,224.70
2022-11-24T20:21:58.297Z,184.10
2022-11-24T20:22:56.945Z,142.80
2022-11-24T20:24:04.929Z,182.60
2022-11-24T20:25:41.556Z,227.10
2022-11-24T20:26:15.840Z,329.00
2022-11-24T20:27:30.159Z,245.80
2022-11-24T20:28:13.860Z,135.30
2022-11-24T20:29:12.454Z,280.00
2022-11-24T20:30:30.267Z,337.10
2022-11-24T20:31:13.624Z,353.30
2022-11-24T20:32:08.484Z,310.20
2022-11-24T20:33:08.204Z,146.40
2022-11-24T20:34:05.083Z,183.60
2022-11-24T20:35:11.216Z,276.30
2022-11-24T20:36:08.444Z,146.50
2022-11-24T20:37:06.538Z,110.10
2022-11-24T20:38:05.751Z,147.00
2022-11-24T20:39:01.633Z,251.50
2022-11-24T20:39:59.820Z,274.70
2022-11-24T20:41:08.822Z,261.60
2022-11-24T20:42:03.253Z,293.30
2022-11-24T20:43:00.622Z,212.60
2022-11-24T20:44:22.144Z,191.20
2022-11-24T20:44:59.146Z,207.50
2022-11-24T20:46:08.042Z,251.60
2022-11-24T20:47:02.514Z,257.10
2022-11-24T20:48:13.227Z,279.00
2022-11-24T22:09:21.443Z,147.40
2022-11-24T22:09:44.412Z,159.10
2022-11-24T22:20:24.331Z,192.60
2022-11-24T22:20:54.364Z,191.00
2022-11-24T22:21:58.892Z,264.90
2022-11-24T22:22:55.701Z,200.90
2022-11-24T22:30:03.975Z,241.90
2022-11-24T22:31:00.597Z,245.90
2022-11-24T22:32:09.869Z,223.60
2022-11-24T22:33:09.181Z,304.90
2022-11-24T22:34:00.302Z,249.90
2022-11-24T22:34:57.645Z,267.10
2022-11-24T22:36:21.778Z,287.60
2022-11-24T22:37:07.885Z,281.80
2022-11-24T22:38:13.827Z,301.80
2022-11-24T22:39:20.083Z,292.00
2022-11-24T22:40:11.919Z,402.70
2022-11-24T22:41:05.707Z,228.80
2022-11-24T22:42:07.137Z,234.50
2022-11-24T22:43:07.465Z,223.50
2022-11-24T22:44:06.813Z,182.50
2022-11-24T22:45:02.816Z,281.50
2022-11-24T22:46:07.610Z,287.60
2022-11-24T22:46:59.548Z,269.10
2022-11-24T22:48:03.104Z,227.30
2022-11-24T22:49:02.153Z,310.70
2022-11-24T22:50:06.104Z,268.00
2022-11-24T22:54:11.917Z,215.80
2022-11-24T22:55:11.331Z,218.20
2022-11-24T22:56:10.305Z,256.20
2022-11-24T22:57:14.857Z,301.60
2022-11-24T22:58:15.300Z,213.20
2022-11-24T22:59:14.401Z,233.00
2022-11-24T23:00:10.352Z,282.70
2022-11-24T23:01:13.180Z,258.50
2022-11-24T23:02:15.491Z,230.60
2022-11-24T23:03:24.565Z,231.40
2022-11-24T23:04:09.223Z,221.30
2022-11-24T23:05:14.708Z,281.40
2022-11-24T23:06:14.775Z,296.00
2022-11-24T23:07:18.199Z,277.50
2022-11-24T23:08:51.186Z,278.80
2022-11-24T23:09:22.726Z,286.10
2022-11-24T23:10:38.182Z,276.40
2022-11-24T23:11:40.785Z,282.30
2022-11-24T23:12:37.506Z,279.70
2022-11-24T23:13:14.331Z,277.80
2022-11-24T23:14:12.697Z,288.70
2022-11-24T23:15:11.696Z,205.10
2022-11-24T23:16:10.657Z,298.50
2022-11-24T23:17:15.633Z,274.60
2022-11-24T23:18:16.244Z,327.00
2022-11-24T23:19:19.535Z,328.60
2022-11-24T23:20:08.364Z,333.20
2022-11-24T23:21:35.772Z,344.00
2022-11-24T23:22:15.372Z,344.30
2022-11-24T23:23:19.151Z,331.10
2022-11-24T23:24:13.333Z,311.80
2022-11-24T23:25:16.889Z,386.80
2022-11-24T23:26:39.215Z,365.80
2022-11-24T23:27:06.782Z,377.00
2022-11-24T23:28:18.635Z,408.50
2022-11-24T23:33:09.953Z,433.30
2022-11-24T23:33:40.931Z,435.20
2022-11-24T23:34:41.918Z,421.70
2022-11-24T23:35:41.496Z,434.00
2022-11-24T23:38:49.197Z,254.70
2022-11-24T23:58:28.775Z,283.40
2022-11-24T23:59:33.451Z,247.40
